Naikaimaru No.25 — JD2137 — position and weather

sailwx.info

Track history (hours):
 
Tides and Currents Weather Stations Pressure Air Temp Water Temp Dewpoint Dewpoint Depression Visibility Wind Speed Wind Dir Waves Ship Positions

Naikaimaru No.25

Last reported at 2018-May-18 08:08 UTC. Time now 2018-May-22 17:21 UTC.
Position N 34°60' E 139°33'.

Length 104 m; draft 5 m.

Type: Tanker. MMSI: 431501829.

Date/timePositionNaut miles runAvg speedWind from/ knotsBaromVisibWave heightAir tempDewpointWater temp
2018-May-18 08:08N 34°60' E 139°33'110.6
2018-May-18 08:01N 35°01' E 139°34'611.6
2018-May-18 07:30N 35°05' E 139°39'612.4
2018-May-18 07:00N 35°09' E 139°44'611.7
2018-May-18 06:30N 35°15' E 139°46'612.6
2018-May-18 06:00N 35°21' E 139°42'612.4
2018-May-18 05:31N 35°26' E 139°45'510.4
2018-May-18 04:59N 35°30' E 139°50'0 0.0
2018-May-17 09:31N 35°30' E 139°50'0 0.0
2018-May-17 04:13N 35°30' E 139°50'0 0.0
2018-May-17 00:33N 35°30' E 139°50'0 0.0
2018-May-17 00:27N 35°30' E 139°50'0 0.1
2018-May-16 23:57N 35°30' E 139°50'0 0.0
2018-May-16 22:03N 35°30' E 139°50'0 0.8
2018-May-16 21:59N 35°30' E 139°50'3 5.8
2018-May-16 21:30N 35°27' E 139°50'612.8
2018-May-16 21:00N 35°22' E 139°45'611.1
2018-May-16 20:30N 35°17' E 139°46'611.2
2018-May-16 20:01N 35°11' E 139°47'714.6
2018-May-16 19:30N 35°04' E 139°45'714.0
2018-May-16 19:00N 34°57' E 139°44'  
2018-May-12 22:17N 35°02' E 140°21'714.0
2018-May-12 21:48N 34°58' E 140°14'514.0
2018-May-12 21:27N 34°56' E 140°09'1414.2
2018-May-12 20:28N 34°49' E 139°54'1713.4
2018-May-12 19:10N 34°41' E 139°35'314.2
2018-May-12 18:56N 34°39' E 139°32'1315.2
2018-May-12 18:06N 34°35' E 139°17'514.6
2018-May-12 17:44N 34°34' E 139°11'514.0
2018-May-12 17:25N 34°33' E 139°05'613.9
2018-May-12 17:00N 34°32' E 138°58'713.7
2018-May-12 16:27N 34°31' E 138°49'713.7
2018-May-12 15:57N 34°31' E 138°41'613.5
2018-May-12 15:28N 34°31' E 138°33'2113.4
2018-May-12 13:55N 34°32' E 138°08'913.5
2018-May-12 13:15N 34°32' E 137°57'313.0
2018-May-12 12:59N 34°32' E 137°53'3013.2
2018-May-12 10:42N 34°32' E 137°16'313.9
2018-May-12 10:30N 34°32' E 137°13'2012.9
2018-May-12 08:57N 34°40' E 136°51'613.1
2018-May-12 08:30N 34°45' E 136°47'612.7
2018-May-12 08:00N 34°51' E 136°46'612.3
2018-May-12 07:30N 34°57' E 136°47'3 5.4
2018-May-12 07:00N 34°59' E 136°50'0 0.0
2018-May-12 06:30N 34°59' E 136°50'0 0.0
2018-May-12 06:00N 34°59' E 136°50'0 0.0
2018-May-12 05:30N 34°59' E 136°50'0 0.0
2018-May-12 05:00N 34°59' E 136°50'0 0.0
2018-May-12 04:30N 34°59' E 136°50'0 0.0
2018-May-12 04:00N 34°59' E 136°50'0 0.0
2018-May-12 03:30N 34°59' E 136°50'0 0.0
2018-May-12 02:56N 34°59' E 136°50'0 0.0
2018-May-12 02:29N 34°59' E 136°50'0 0.0
2018-May-12 01:59N 34°59' E 136°50'0 0.0
2018-May-12 01:29N 34°59' E 136°50'0 0.0
2018-May-12 00:59N 34°59' E 136°50'0 0.0
2018-May-12 00:29N 34°59' E 136°50'0 0.0
2018-May-11 23:59N 34°59' E 136°50'0 0.6
2018-May-11 23:30N 34°59' E 136°50'2 4.1
2018-May-11 23:01N 34°58' E 136°48'3 4.8
2018-May-11 22:29N 34°56' E 136°45'0 0.0
2018-May-11 21:59N 34°56' E 136°45'0 0.0
2018-May-11 21:23N 34°56' E 136°45'0 0.0
2018-May-11 20:59N 34°56' E 136°45'0 0.0
2018-May-11 20:29N 34°56' E 136°45'0 0.0
2018-May-11 19:59N 34°56' E 136°45'0 0.1
2018-May-11 19:29N 34°57' E 136°45'0 0.0
2018-May-11 18:59N 34°57' E 136°45'0 0.1
2018-May-11 18:29N 34°57' E 136°45'0 0.0
2018-May-11 17:59N 34°57' E 136°45'0 0.0
2018-May-11 17:29N 34°57' E 136°45'0 0.0
2018-May-11 16:59N 34°57' E 136°45'0 0.0
2018-May-11 16:29N 34°57' E 136°45'0 0.0
2018-May-11 15:59N 34°57' E 136°45'0 0.0
2018-May-11 15:29N 34°57' E 136°45'0 0.0
2018-May-11 14:59N 34°57' E 136°45'0 0.0
2018-May-11 14:29N 34°57' E 136°45'0 0.1
2018-May-11 13:59N 34°57' E 136°45'0 0.1
2018-May-11 13:29N 34°57' E 136°45'0 0.0
2018-May-11 12:59N 34°57' E 136°45'0 0.0
2018-May-11 12:29N 34°57' E 136°45'0 0.0
2018-May-11 11:59N 34°57' E 136°45'0 0.0
2018-May-11 11:29N 34°57' E 136°45'0 0.0
2018-May-11 10:58N 34°57' E 136°45'0 0.0
2018-May-11 10:28N 34°57' E 136°45'0 0.1
2018-May-11 09:58N 34°57' E 136°45'0 0.0
2018-May-11 09:28N 34°57' E 136°45'0 0.0
2018-May-11 08:58N 34°57' E 136°45'0 0.0
2018-May-11 08:28N 34°57' E 136°45'0 0.1
2018-May-11 07:52N 34°57' E 136°45'0 0.0
2018-May-11 07:28N 34°57' E 136°45'0 0.1
2018-May-11 06:46N 34°57' E 136°45'0 0.1
2018-May-11 06:28N 34°57' E 136°45'0 0.1
2018-May-11 05:52N 34°57' E 136°45'0 0.0
2018-May-11 05:22N 34°56' E 136°45'0 0.0
2018-May-11 04:58N 34°56' E 136°45'0 0.0
2018-May-11 04:22N 34°56' E 136°45'0 0.0
2018-May-11 03:58N 34°56' E 136°45'0 0.0
2018-May-11 03:28N 34°56' E 136°45'0 0.0
2018-May-11 02:58N 34°56' E 136°45'0 0.1
2018-May-11 02:28N 34°56' E 136°45'0 0.0
2018-May-11 01:58N 34°56' E 136°45'0 0.0
2018-May-11 01:28N 34°56' E 136°45'0 0.0
2018-May-11 00:58N 34°56' E 136°45'0 0.0
2018-May-11 00:28N 34°56' E 136°45'0 0.0
2018-May-10 23:58N 34°56' E 136°45'0 0.0
2018-May-10 23:28N 34°56' E 136°45'0 0.0
2018-May-10 22:58N 34°56' E 136°45'0 0.0
2018-May-10 22:28N 34°56' E 136°45'0 0.0
2018-May-10 21:58N 34°56' E 136°45'0 0.0
2018-May-10 21:28N 34°56' E 136°45'0 0.0
2018-May-10 20:58N 34°56' E 136°45'0 0.0
2018-May-10 20:28N 34°56' E 136°45'0 0.0
2018-May-10 19:58N 34°56' E 136°45'0 0.0
2018-May-10 19:25N 34°56' E 136°45'0 0.0
2018-May-10 18:58N 34°56' E 136°45'0 0.0
2018-May-10 18:28N 34°56' E 136°45'0 0.0
2018-May-10 17:58N 34°56' E 136°45'2 3.9
2018-May-10 17:30N 34°55' E 136°46'713.6
2018-May-10 17:00N 34°48' E 136°47'713.9
2018-May-10 16:30N 34°42' E 136°51'713.5
2018-May-10 15:57N 34°36' E 136°57'613.1
2018-May-10 15:30N 34°32' E 137°03'713.6
2018-May-10 15:00N 34°31' E 137°11'813.8
2018-May-10 14:26N 34°32' E 137°21'2313.1
2018-May-10 12:41N 34°32' E 137°48'313.3
2018-May-10 12:26N 34°32' E 137°52'613.4
2018-May-10 11:57N 34°32' E 138°00'612.9
2018-May-10 11:29N 34°32' E 138°07'612.7
2018-May-10 10:59N 34°32' E 138°15'712.2
2018-May-10 10:24N 34°32' E 138°24'612.8
2018-May-10 09:55N 34°33' E 138°31'613.3
2018-May-10 09:29N 34°33' E 138°38'613.5
2018-May-10 09:00N 34°33' E 138°46'613.1
2018-May-10 08:30N 34°33' E 138°54'612.8
2018-May-10 08:00N 34°36' E 139°01'713.6
2018-May-10 07:30N 34°41' E 139°07'813.6
2018-May-10 06:56N 34°46' E 139°14'613.9
2018-May-10 06:30N 34°50' E 139°19'1013.7
2018-May-10 05:48N 34°56' E 139°28'413.6
2018-May-10 05:30N 34°59' E 139°32'713.8
2018-May-10 05:00N 35°04' E 139°38'714.8
2018-May-10 04:30N 35°09' E 139°44'713.9
2018-May-10 04:00N 35°16' E 139°46'713.3
2018-May-10 03:30N 35°22' E 139°42'713.2
2018-May-10 03:00N 35°27' E 139°47'510.7
2018-May-10 02:30N 35°28' E 139°54'0 0.4
2018-May-10 01:54N 35°28' E 139°54'0 0.0
2018-May-10 01:18N 35°28' E 139°54'0 0.0
2018-May-10 00:48N 35°28' E 139°54'0 0.0
2018-May-10 00:09N 35°28' E 139°54'0 0.1
2018-May-09 23:33N 35°28' E 139°53'0 0.5
2018-May-09 23:27N 35°28' E 139°54'0 0.1
2018-May-09 22:57N 35°28' E 139°53'0 0.0
2018-May-09 22:24N 35°28' E 139°53'0 0.0
2018-May-09 21:15N 35°28' E 139°54'0 0.0
2018-May-09 20:51N 35°28' E 139°54'0 0.0
2018-May-09 20:21N 35°28' E 139°54'0 0.1
2018-May-09 19:48N 35°28' E 139°53'0 0.1
2018-May-09 19:15N 35°28' E 139°54'0 0.2
2018-May-09 18:59N 35°28' E 139°53'0 0.1
2018-May-09 18:30N 35°28' E 139°54'0 0.0
2018-May-09 17:11N 35°28' E 139°53'0 0.2
2018-May-09 16:59N 35°28' E 139°54'0 0.0
2018-May-09 16:26N 35°28' E 139°54'0 0.0
2018-May-09 15:47N 35°28' E 139°54'0 0.1
2018-May-09 15:23N 35°28' E 139°53'0 0.1
2018-May-09 14:59N 35°28' E 139°54'0 0.0
2018-May-09 14:20N 35°28' E 139°54'0 0.0
2018-May-09 13:59N 35°28' E 139°54'0 0.0
2018-May-09 12:32N 35°28' E 139°54'0 0.1
2018-May-09 12:26N 35°28' E 139°54'0 0.0
2018-May-09 10:53N 35°28' E 139°54'0 0.0
2018-May-09 10:23N 35°28' E 139°54'0 0.0
2018-May-09 09:53N 35°28' E 139°54'0 0.0
2018-May-09 09:20N 35°28' E 139°54'0 0.0
2018-May-09 08:59N 35°28' E 139°54'0 0.0
2018-May-09 07:53N 35°28' E 139°54'0 0.0
2018-May-09 07:20N 35°28' E 139°54'0 0.0
2018-May-09 06:56N 35°28' E 139°54'0 0.0
2018-May-09 05:38N 35°28' E 139°54'0 0.0
2018-May-09 05:29N 35°28' E 139°54'0 0.0
2018-May-09 04:56N 35°28' E 139°54'0 0.0
2018-May-09 04:20N 35°28' E 139°54'0 0.0
2018-May-09 03:59N 35°28' E 139°54'0 0.0
2018-May-09 03:29N 35°28' E 139°54'0 0.1
2018-May-09 02:56N 35°28' E 139°54'0 0.1
2018-May-09 02:20N 35°28' E 139°54'0 0.0
2018-May-09 01:59N 35°28' E 139°54'0 0.0
2018-May-09 01:29N 35°28' E 139°54'0 0.0
2018-May-09 00:47N 35°28' E 139°54'0 0.0
2018-May-09 00:28N 35°28' E 139°54'4 7.8
2018-May-09 00:00N 35°30' E 139°57'714.3
2018-May-08 23:30N 35°35' E 140°04'2 4.5
2018-May-08 23:00N 35°36' E 140°06'0 0.0
2018-May-08 22:30N 35°36' E 140°06'0 0.0
2018-May-08 22:00N 35°36' E 140°06'0 0.0
2018-May-08 21:30N 35°36' E 140°06'0 0.0
2018-May-08 21:00N 35°36' E 140°06'0 0.0
2018-May-08 20:30N 35°36' E 140°06'0 0.0
2018-May-08 20:00N 35°36' E 140°06'0 0.0
2018-May-08 19:30N 35°36' E 140°06'0 0.0
2018-May-08 19:00N 35°36' E 140°06'0 0.0
2018-May-08 18:30N 35°36' E 140°06'0 0.0
2018-May-08 18:00N 35°36' E 140°06'0 0.0
2018-May-08 17:30N 35°36' E 140°06'0 0.0
2018-May-08 17:00N 35°36' E 140°06'0 0.0
2018-May-08 16:30N 35°36' E 140°06'0 0.0
2018-May-08 15:57N 35°36' E 140°06'0 0.0
2018-May-08 15:30N 35°36' E 140°06'0 0.0
2018-May-08 15:00N 35°36' E 140°06'0 0.0
2018-May-08 14:30N 35°36' E 140°06'0 0.0
2018-May-08 13:48N 35°36' E 140°06'0 0.0
2018-May-08 13:30N 35°36' E 140°06'0 0.0
2018-May-08 13:00N 35°36' E 140°06'0 0.0
2018-May-08 12:30N 35°36' E 140°06'0 0.0
2018-May-08 12:00N 35°36' E 140°06'0 0.0
2018-May-08 11:30N 35°36' E 140°06'0 0.0
2018-May-08 11:00N 35°36' E 140°06'0 0.0
2018-May-08 10:30N 35°36' E 140°06'0 0.0
2018-May-08 10:00N 35°36' E 140°06'0 0.0
2018-May-08 09:29N 35°36' E 140°06'0 0.0
2018-May-08 08:59N 35°36' E 140°06'0 0.0
2018-May-08 08:29N 35°36' E 140°06'  
Track history (hours):
 
Tides and Currents Weather Stations Pressure Air Temp Water Temp Dewpoint Dewpoint Depression Visibility Wind Speed Wind Dir Waves Ship Positions

Naikaimaru No.25

Last reported at 2018-May-18 08:08 UTC. Time now 2018-May-22 17:21 UTC.
Position N 34°60' E 139°33'.

Length 104 m; draft 5 m.

Type: Tanker. MMSI: 431501829.

Date/timePositionNaut miles runAvg speedWind from/ knotsBaromVisibWave heightAir tempDewpointWater temp
2018-May-18 08:08N 34°60' E 139°33'110.6
2018-May-18 08:01N 35°01' E 139°34'611.6
2018-May-18 07:30N 35°05' E 139°39'612.4
2018-May-18 07:00N 35°09' E 139°44'611.7
2018-May-18 06:30N 35°15' E 139°46'612.6
2018-May-18 06:00N 35°21' E 139°42'612.4
2018-May-18 05:31N 35°26' E 139°45'510.4
2018-May-18 04:59N 35°30' E 139°50'0 0.0
2018-May-17 09:31N 35°30' E 139°50'0 0.0
2018-May-17 04:13N 35°30' E 139°50'0 0.0
2018-May-17 00:33N 35°30' E 139°50'0 0.0
2018-May-17 00:27N 35°30' E 139°50'0 0.1
2018-May-16 23:57N 35°30' E 139°50'0 0.0
2018-May-16 22:03N 35°30' E 139°50'0 0.8
2018-May-16 21:59N 35°30' E 139°50'3 5.8
2018-May-16 21:30N 35°27' E 139°50'612.8
2018-May-16 21:00N 35°22' E 139°45'611.1
2018-May-16 20:30N 35°17' E 139°46'611.2
2018-May-16 20:01N 35°11' E 139°47'714.6
2018-May-16 19:30N 35°04' E 139°45'714.0
2018-May-16 19:00N 34°57' E 139°44'  
2018-May-12 22:17N 35°02' E 140°21'714.0
2018-May-12 21:48N 34°58' E 140°14'514.0
2018-May-12 21:27N 34°56' E 140°09'1414.2
2018-May-12 20:28N 34°49' E 139°54'1713.4
2018-May-12 19:10N 34°41' E 139°35'314.2
2018-May-12 18:56N 34°39' E 139°32'1315.2
2018-May-12 18:06N 34°35' E 139°17'514.6
2018-May-12 17:44N 34°34' E 139°11'514.0
2018-May-12 17:25N 34°33' E 139°05'613.9
2018-May-12 17:00N 34°32' E 138°58'713.7
2018-May-12 16:27N 34°31' E 138°49'713.7
2018-May-12 15:57N 34°31' E 138°41'613.5
2018-May-12 15:28N 34°31' E 138°33'2113.4
2018-May-12 13:55N 34°32' E 138°08'913.5
2018-May-12 13:15N 34°32' E 137°57'313.0
2018-May-12 12:59N 34°32' E 137°53'3013.2
2018-May-12 10:42N 34°32' E 137°16'313.9
2018-May-12 10:30N 34°32' E 137°13'2012.9
2018-May-12 08:57N 34°40' E 136°51'613.1
2018-May-12 08:30N 34°45' E 136°47'612.7
2018-May-12 08:00N 34°51' E 136°46'612.3
2018-May-12 07:30N 34°57' E 136°47'3 5.4
2018-May-12 07:00N 34°59' E 136°50'0 0.0
2018-May-12 06:30N 34°59' E 136°50'0 0.0
2018-May-12 06:00N 34°59' E 136°50'0 0.0
2018-May-12 05:30N 34°59' E 136°50'0 0.0
2018-May-12 05:00N 34°59' E 136°50'0 0.0
2018-May-12 04:30N 34°59' E 136°50'0 0.0
2018-May-12 04:00N 34°59' E 136°50'0 0.0
2018-May-12 03:30N 34°59' E 136°50'0 0.0
2018-May-12 02:56N 34°59' E 136°50'0 0.0
2018-May-12 02:29N 34°59' E 136°50'0 0.0
2018-May-12 01:59N 34°59' E 136°50'0 0.0
2018-May-12 01:29N 34°59' E 136°50'0 0.0
2018-May-12 00:59N 34°59' E 136°50'0 0.0
2018-May-12 00:29N 34°59' E 136°50'0 0.0
2018-May-11 23:59N 34°59' E 136°50'0 0.6
2018-May-11 23:30N 34°59' E 136°50'2 4.1
2018-May-11 23:01N 34°58' E 136°48'3 4.8
2018-May-11 22:29N 34°56' E 136°45'0 0.0
2018-May-11 21:59N 34°56' E 136°45'0 0.0
2018-May-11 21:23N 34°56' E 136°45'0 0.0
2018-May-11 20:59N 34°56' E 136°45'0 0.0
2018-May-11 20:29N 34°56' E 136°45'0 0.0
2018-May-11 19:59N 34°56' E 136°45'0 0.1
2018-May-11 19:29N 34°57' E 136°45'0 0.0
2018-May-11 18:59N 34°57' E 136°45'0 0.1
2018-May-11 18:29N 34°57' E 136°45'0 0.0
2018-May-11 17:59N 34°57' E 136°45'0 0.0
2018-May-11 17:29N 34°57' E 136°45'0 0.0
2018-May-11 16:59N 34°57' E 136°45'0 0.0
2018-May-11 16:29N 34°57' E 136°45'0 0.0
2018-May-11 15:59N 34°57' E 136°45'0 0.0
2018-May-11 15:29N 34°57' E 136°45'0 0.0
2018-May-11 14:59N 34°57' E 136°45'0 0.0
2018-May-11 14:29N 34°57' E 136°45'0 0.1
2018-May-11 13:59N 34°57' E 136°45'0 0.1
2018-May-11 13:29N 34°57' E 136°45'0 0.0
2018-May-11 12:59N 34°57' E 136°45'0 0.0
2018-May-11 12:29N 34°57' E 136°45'0 0.0
2018-May-11 11:59N 34°57' E 136°45'0 0.0
2018-May-11 11:29N 34°57' E 136°45'0 0.0
2018-May-11 10:58N 34°57' E 136°45'0 0.0
2018-May-11 10:28N 34°57' E 136°45'0 0.1
2018-May-11 09:58N 34°57' E 136°45'0 0.0
2018-May-11 09:28N 34°57' E 136°45'0 0.0
2018-May-11 08:58N 34°57' E 136°45'0 0.0
2018-May-11 08:28N 34°57' E 136°45'0 0.1
2018-May-11 07:52N 34°57' E 136°45'0 0.0
2018-May-11 07:28N 34°57' E 136°45'0 0.1
2018-May-11 06:46N 34°57' E 136°45'0 0.1
2018-May-11 06:28N 34°57' E 136°45'0 0.1
2018-May-11 05:52N 34°57' E 136°45'0 0.0
2018-May-11 05:22N 34°56' E 136°45'0 0.0
2018-May-11 04:58N 34°56' E 136°45'0 0.0
2018-May-11 04:22N 34°56' E 136°45'0 0.0
2018-May-11 03:58N 34°56' E 136°45'0 0.0
2018-May-11 03:28N 34°56' E 136°45'0 0.0
2018-May-11 02:58N 34°56' E 136°45'0 0.1
2018-May-11 02:28N 34°56' E 136°45'0 0.0
2018-May-11 01:58N 34°56' E 136°45'0 0.0
2018-May-11 01:28N 34°56' E 136°45'0 0.0
2018-May-11 00:58N 34°56' E 136°45'0 0.0
2018-May-11 00:28N 34°56' E 136°45'0 0.0
2018-May-10 23:58N 34°56' E 136°45'0 0.0
2018-May-10 23:28N 34°56' E 136°45'0 0.0
2018-May-10 22:58N 34°56' E 136°45'0 0.0
2018-May-10 22:28N 34°56' E 136°45'0 0.0
2018-May-10 21:58N 34°56' E 136°45'0 0.0
2018-May-10 21:28N 34°56' E 136°45'0 0.0
2018-May-10 20:58N 34°56' E 136°45'0 0.0
2018-May-10 20:28N 34°56' E 136°45'0 0.0
2018-May-10 19:58N 34°56' E 136°45'0 0.0
2018-May-10 19:25N 34°56' E 136°45'0 0.0
2018-May-10 18:58N 34°56' E 136°45'0 0.0
2018-May-10 18:28N 34°56' E 136°45'0 0.0
2018-May-10 17:58N 34°56' E 136°45'2 3.9
2018-May-10 17:30N 34°55' E 136°46'713.6
2018-May-10 17:00N 34°48' E 136°47'713.9
2018-May-10 16:30N 34°42' E 136°51'713.5
2018-May-10 15:57N 34°36' E 136°57'613.1
2018-May-10 15:30N 34°32' E 137°03'713.6
2018-May-10 15:00N 34°31' E 137°11'813.8
2018-May-10 14:26N 34°32' E 137°21'2313.1
2018-May-10 12:41N 34°32' E 137°48'313.3
2018-May-10 12:26N 34°32' E 137°52'613.4
2018-May-10 11:57N 34°32' E 138°00'612.9
2018-May-10 11:29N 34°32' E 138°07'612.7
2018-May-10 10:59N 34°32' E 138°15'712.2
2018-May-10 10:24N 34°32' E 138°24'612.8
2018-May-10 09:55N 34°33' E 138°31'613.3
2018-May-10 09:29N 34°33' E 138°38'613.5
2018-May-10 09:00N 34°33' E 138°46'613.1
2018-May-10 08:30N 34°33' E 138°54'612.8
2018-May-10 08:00N 34°36' E 139°01'713.6
2018-May-10 07:30N 34°41' E 139°07'813.6
2018-May-10 06:56N 34°46' E 139°14'613.9
2018-May-10 06:30N 34°50' E 139°19'1013.7
2018-May-10 05:48N 34°56' E 139°28'413.6
2018-May-10 05:30N 34°59' E 139°32'713.8
2018-May-10 05:00N 35°04' E 139°38'714.8
2018-May-10 04:30N 35°09' E 139°44'713.9
2018-May-10 04:00N 35°16' E 139°46'713.3
2018-May-10 03:30N 35°22' E 139°42'713.2
2018-May-10 03:00N 35°27' E 139°47'510.7
2018-May-10 02:30N 35°28' E 139°54'0 0.4
2018-May-10 01:54N 35°28' E 139°54'0 0.0
2018-May-10 01:18N 35°28' E 139°54'0 0.0
2018-May-10 00:48N 35°28' E 139°54'0 0.0
2018-May-10 00:09N 35°28' E 139°54'0 0.1
2018-May-09 23:33N 35°28' E 139°53'0 0.5
2018-May-09 23:27N 35°28' E 139°54'0 0.1
2018-May-09 22:57N 35°28' E 139°53'0 0.0
2018-May-09 22:24N 35°28' E 139°53'0 0.0
2018-May-09 21:15N 35°28' E 139°54'0 0.0
2018-May-09 20:51N 35°28' E 139°54'0 0.0
2018-May-09 20:21N 35°28' E 139°54'0 0.1
2018-May-09 19:48N 35°28' E 139°53'0 0.1
2018-May-09 19:15N 35°28' E 139°54'0 0.2
2018-May-09 18:59N 35°28' E 139°53'0 0.1
2018-May-09 18:30N 35°28' E 139°54'0 0.0
2018-May-09 17:11N 35°28' E 139°53'0 0.2
2018-May-09 16:59N 35°28' E 139°54'0 0.0
2018-May-09 16:26N 35°28' E 139°54'0 0.0
2018-May-09 15:47N 35°28' E 139°54'0 0.1
2018-May-09 15:23N 35°28' E 139°53'0 0.1
2018-May-09 14:59N 35°28' E 139°54'0 0.0
2018-May-09 14:20N 35°28' E 139°54'0 0.0
2018-May-09 13:59N 35°28' E 139°54'0 0.0
2018-May-09 12:32N 35°28' E 139°54'0 0.1
2018-May-09 12:26N 35°28' E 139°54'0 0.0
2018-May-09 10:53N 35°28' E 139°54'0 0.0
2018-May-09 10:23N 35°28' E 139°54'0 0.0
2018-May-09 09:53N 35°28' E 139°54'0 0.0
2018-May-09 09:20N 35°28' E 139°54'0 0.0
2018-May-09 08:59N 35°28' E 139°54'0 0.0
2018-May-09 07:53N 35°28' E 139°54'0 0.0
2018-May-09 07:20N 35°28' E 139°54'0 0.0
2018-May-09 06:56N 35°28' E 139°54'0 0.0
2018-May-09 05:38N 35°28' E 139°54'0 0.0
2018-May-09 05:29N 35°28' E 139°54'0 0.0
2018-May-09 04:56N 35°28' E 139°54'0 0.0
2018-May-09 04:20N 35°28' E 139°54'0 0.0
2018-May-09 03:59N 35°28' E 139°54'0 0.0
2018-May-09 03:29N 35°28' E 139°54'0 0.1
2018-May-09 02:56N 35°28' E 139°54'0 0.1
2018-May-09 02:20N 35°28' E 139°54'0 0.0
2018-May-09 01:59N 35°28' E 139°54'0 0.0
2018-May-09 01:29N 35°28' E 139°54'0 0.0
2018-May-09 00:47N 35°28' E 139°54'0 0.0
2018-May-09 00:28N 35°28' E 139°54'4 7.8
2018-May-09 00:00N 35°30' E 139°57'714.3
2018-May-08 23:30N 35°35' E 140°04'2 4.5
2018-May-08 23:00N 35°36' E 140°06'0 0.0
2018-May-08 22:30N 35°36' E 140°06'0 0.0
2018-May-08 22:00N 35°36' E 140°06'0 0.0
2018-May-08 21:30N 35°36' E 140°06'0 0.0
2018-May-08 21:00N 35°36' E 140°06'0 0.0
2018-May-08 20:30N 35°36' E 140°06'0 0.0
2018-May-08 20:00N 35°36' E 140°06'0 0.0
2018-May-08 19:30N 35°36' E 140°06'0 0.0
2018-May-08 19:00N 35°36' E 140°06'0 0.0
2018-May-08 18:30N 35°36' E 140°06'0 0.0
2018-May-08 18:00N 35°36' E 140°06'0 0.0
2018-May-08 17:30N 35°36' E 140°06'0 0.0
2018-May-08 17:00N 35°36' E 140°06'0 0.0
2018-May-08 16:30N 35°36' E 140°06'0 0.0
2018-May-08 15:57N 35°36' E 140°06'0 0.0
2018-May-08 15:30N 35°36' E 140°06'0 0.0
2018-May-08 15:00N 35°36' E 140°06'0 0.0
2018-May-08 14:30N 35°36' E 140°06'0 0.0
2018-May-08 13:48N 35°36' E 140°06'0 0.0
2018-May-08 13:30N 35°36' E 140°06'0 0.0
2018-May-08 13:00N 35°36' E 140°06'0 0.0
2018-May-08 12:30N 35°36' E 140°06'0 0.0
2018-May-08 12:00N 35°36' E 140°06'0 0.0
2018-May-08 11:30N 35°36' E 140°06'0 0.0
2018-May-08 11:00N 35°36' E 140°06'0 0.0
2018-May-08 10:30N 35°36' E 140°06'0 0.0
2018-May-08 10:00N 35°36' E 140°06'0 0.0
2018-May-08 09:29N 35°36' E 140°06'0 0.0
2018-May-08 08:59N 35°36' E 140°06'0 0.0
2018-May-08 08:29N 35°36' E 140°06'  

Dump ship's entire track history